Terminal Aerodrome Forecast
Issued by NWS

Home | Current Version | Previous Version | Text Only | Print | Product List | Glossary On
Versions: 1 2 3 4 5 6 7 8 9 10 11 12
000
FTUS43 KDTX 181700
TAFYIP
TAF
KYIP 181738Z 1818/1918 30006KT P6SM BKN035 BKN080
     FM182100 32009KT P6SM BKN050
     FM190000 02008KT P6SM FEW050
     FM191400 07008KT P6SM SKC=

USA.gov is the U.S. government's official web portal to all federal, state and local government web resources and services.